sensor_id;sensor_type;location;lat;lon;timestamp;P1;durP1;ratioP1;P2;durP2;ratioP2
7432;SDS011;32233;49.500;7.764;2022-11-11T00:02:43;41.47;;;13.27;;
7432;SDS011;32233;49.500;7.764;2022-11-11T00:05:28;54.87;;;13.87;;
7432;SDS011;32233;49.500;7.764;2022-11-11T00:08:13;56.93;;;14.80;;
7432;SDS011;32233;49.500;7.764;2022-11-11T00:13:47;30.10;;;13.90;;
7432;SDS011;32233;49.500;7.764;2022-11-11T00:16:32;32.83;;;13.23;;
7432;SDS011;32233;49.500;7.764;2022-11-11T00:19:37;32.70;;;13.03;;
7432;SDS011;32233;49.500;7.764;2022-11-11T00:22:40;28.40;;;12.30;;
7432;SDS011;32233;49.500;7.764;2022-11-11T00:25:44;30.47;;;11.80;;
7432;SDS011;32233;49.500;7.764;2022-11-11T00:28:29;111.33;;;14.33;;
7432;SDS011;32233;49.500;7.764;2022-11-11T00:31:14;56.37;;;13.13;;
7432;SDS011;32233;49.500;7.764;2022-11-11T00:33:59;49.57;;;12.43;;
7432;SDS011;32233;49.500;7.764;2022-11-11T00:36:45;34.37;;;11.57;;
7432;SDS011;32233;49.500;7.764;2022-11-11T00:39:30;40.30;;;11.03;;
7432;SDS011;32233;49.500;7.764;2022-11-11T00:42:15;28.37;;;10.50;;
7432;SDS011;32233;49.500;7.764;2022-11-11T00:45:00;28.00;;;11.90;;
7432;SDS011;32233;49.500;7.764;2022-11-11T00:47:45;29.57;;;11.03;;
7432;SDS011;32233;49.500;7.764;2022-11-11T00:50:49;35.03;;;12.80;;
7432;SDS011;32233;49.500;7.764;2022-11-11T00:53:44;29.77;;;11.87;;
7432;SDS011;32233;49.500;7.764;2022-11-11T00:56:29;30.73;;;12.23;;
7432;SDS011;32233;49.500;7.764;2022-11-11T00:59:14;37.73;;;12.60;;
7432;SDS011;32233;49.500;7.764;2022-11-11T01:01:59;28.17;;;11.57;;
7432;SDS011;32233;49.500;7.764;2022-11-11T01:04:45;47.77;;;12.00;;
7432;SDS011;32233;49.500;7.764;2022-11-11T01:07:30;47.13;;;12.10;;
7432;SDS011;32233;49.500;7.764;2022-11-11T01:10:16;42.77;;;11.93;;
7432;SDS011;32233;49.500;7.764;2022-11-11T01:13:23;37.13;;;10.77;;
7432;SDS011;32233;49.500;7.764;2022-11-11T01:16:14;52.53;;;10.37;;
7432;SDS011;32233;49.500;7.764;2022-11-11T01:19:02;56.07;;;11.13;;
7432;SDS011;32233;49.500;7.764;2022-11-11T01:21:47;37.67;;;11.10;;
7432;SDS011;32233;49.500;7.764;2022-11-11T01:24:32;30.00;;;11.67;;
7432;SDS011;32233;49.500;7.764;2022-11-11T01:27:17;35.40;;;10.80;;
7432;SDS011;32233;49.500;7.764;2022-11-11T01:30:03;30.00;;;10.37;;
7432;SDS011;32233;49.500;7.764;2022-11-11T01:32:48;26.17;;;10.50;;
7432;SDS011;32233;49.500;7.764;2022-11-11T01:35:36;28.67;;;10.40;;
7432;SDS011;32233;49.500;7.764;2022-11-11T01:38:23;17.80;;;8.03;;
7432;SDS011;32233;49.500;7.764;2022-11-11T01:41:10;27.23;;;8.07;;
7432;SDS011;32233;49.500;7.764;2022-11-11T01:44:58;31.53;;;8.23;;
7432;SDS011;32233;49.500;7.764;2022-11-11T01:47:26;19.37;;;7.80;;
7432;SDS011;32233;49.500;7.764;2022-11-11T01:50:51;16.77;;;7.13;;
7432;SDS011;32233;49.500;7.764;2022-11-11T01:53:37;19.87;;;6.77;;
7432;SDS011;32233;49.500;7.764;2022-11-11T01:56:22;22.10;;;6.97;;
7432;SDS011;32233;49.500;7.764;2022-11-11T01:59:10;17.83;;;6.30;;
7432;SDS011;32233;49.500;7.764;2022-11-11T02:01:57;17.43;;;6.43;;
7432;SDS011;32233;49.500;7.764;2022-11-11T02:04:44;13.27;;;5.30;;
7432;SDS011;32233;49.500;7.764;2022-11-11T02:07:50;14.80;;;5.03;;
7432;SDS011;32233;49.500;7.764;2022-11-11T02:10:35;19.53;;;5.87;;
7432;SDS011;32233;49.500;7.764;2022-11-11T02:13:24;10.50;;;5.50;;
7432;SDS011;32233;49.500;7.764;2022-11-11T02:16:27;10.43;;;5.13;;
7432;SDS011;32233;49.500;7.764;2022-11-11T02:19:13;20.53;;;5.50;;
7432;SDS011;32233;49.500;7.764;2022-11-11T02:22:02;16.63;;;5.43;;
7432;SDS011;32233;49.500;7.764;2022-11-11T02:24:51;12.20;;;5.47;;
7432;SDS011;32233;49.500;7.764;2022-11-11T02:27:38;24.00;;;4.97;;
7432;SDS011;32233;49.500;7.764;2022-11-11T02:30:26;13.43;;;5.50;;
7432;SDS011;32233;49.500;7.764;2022-11-11T02:33:12;8.53;;;4.80;;
7432;SDS011;32233;49.500;7.764;2022-11-11T02:35:57;64.50;;;6.90;;
7432;SDS011;32233;49.500;7.764;2022-11-11T02:38:44;14.60;;;5.47;;
7432;SDS011;32233;49.500;7.764;2022-11-11T02:41:29;13.63;;;4.93;;
7432;SDS011;32233;49.500;7.764;2022-11-11T02:44:33;11.90;;;4.53;;
7432;SDS011;32233;49.500;7.764;2022-11-11T02:47:18;9.73;;;4.27;;
7432;SDS011;32233;49.500;7.764;2022-11-11T02:50:04;10.93;;;4.70;;
7432;SDS011;32233;49.500;7.764;2022-11-11T02:52:49;15.00;;;4.90;;
7432;SDS011;32233;49.500;7.764;2022-11-11T02:55:34;22.13;;;5.30;;
7432;SDS011;32233;49.500;7.764;2022-11-11T02:58:20;18.23;;;4.77;;
7432;SDS011;32233;49.500;7.764;2022-11-11T03:01:05;9.97;;;4.40;;
7432;SDS011;32233;49.500;7.764;2022-11-11T03:03:50;24.37;;;4.50;;
7432;SDS011;32233;49.500;7.764;2022-11-11T03:06:35;24.77;;;4.17;;
7432;SDS011;32233;49.500;7.764;2022-11-11T03:09:21;15.97;;;4.10;;
7432;SDS011;32233;49.500;7.764;2022-11-11T03:12:06;10.63;;;3.43;;
7432;SDS011;32233;49.500;7.764;2022-11-11T03:14:51;12.90;;;4.03;;
7432;SDS011;32233;49.500;7.764;2022-11-11T03:17:36;15.30;;;3.70;;
7432;SDS011;32233;49.500;7.764;2022-11-11T03:20:25;10.27;;;3.60;;
7432;SDS011;32233;49.500;7.764;2022-11-11T03:23:29;7.57;;;3.33;;
7432;SDS011;32233;49.500;7.764;2022-11-11T03:26:14;20.17;;;3.90;;
7432;SDS011;32233;49.500;7.764;2022-11-11T03:28:59;13.93;;;3.90;;
7432;SDS011;32233;49.500;7.764;2022-11-11T03:31:44;10.47;;;3.87;;
7432;SDS011;32233;49.500;7.764;2022-11-11T03:34:29;15.90;;;3.37;;
7432;SDS011;32233;49.500;7.764;2022-11-11T03:37:14;16.53;;;3.17;;
7432;SDS011;32233;49.500;7.764;2022-11-11T03:40:18;13.43;;;3.43;;
7432;SDS011;32233;49.500;7.764;2022-11-11T03:43:03;8.93;;;3.17;;
7432;SDS011;32233;49.500;7.764;2022-11-11T03:45:49;12.27;;;2.97;;
7432;SDS011;32233;49.500;7.764;2022-11-11T03:48:35;10.37;;;3.13;;
7432;SDS011;32233;49.500;7.764;2022-11-11T03:51:20;11.37;;;2.63;;
7432;SDS011;32233;49.500;7.764;2022-11-11T03:54:05;7.40;;;2.70;;
7432;SDS011;32233;49.500;7.764;2022-11-11T03:56:50;7.30;;;3.40;;
7432;SDS011;32233;49.500;7.764;2022-11-11T03:59:35;4.90;;;2.63;;
7432;SDS011;32233;49.500;7.764;2022-11-11T04:02:20;7.33;;;3.43;;
7432;SDS011;32233;49.500;7.764;2022-11-11T04:05:24;6.47;;;3.03;;
7432;SDS011;32233;49.500;7.764;2022-11-11T04:08:28;6.90;;;2.57;;
7432;SDS011;32233;49.500;7.764;2022-11-11T04:11:32;8.27;;;2.90;;
7432;SDS011;32233;49.500;7.764;2022-11-11T04:14:21;6.77;;;2.80;;
7432;SDS011;32233;49.500;7.764;2022-11-11T04:17:25;4.33;;;2.40;;
7432;SDS011;32233;49.500;7.764;2022-11-11T04:20:10;11.80;;;2.70;;
7432;SDS011;32233;49.500;7.764;2022-11-11T04:23:14;6.60;;;2.60;;
7432;SDS011;32233;49.500;7.764;2022-11-11T04:26:00;8.17;;;2.60;;
7432;SDS011;32233;49.500;7.764;2022-11-11T04:28:45;7.63;;;2.40;;
7432;SDS011;32233;49.500;7.764;2022-11-11T04:31:49;5.23;;;2.70;;
7432;SDS011;32233;49.500;7.764;2022-11-11T04:34:54;3.13;;;1.90;;
7432;SDS011;32233;49.500;7.764;2022-11-11T04:37:47;22.73;;;3.07;;
7432;SDS011;32233;49.500;7.764;2022-11-11T04:40:56;18.70;;;3.10;;
7432;SDS011;32233;49.500;7.764;2022-11-11T04:43:47;18.57;;;2.90;;
7432;SDS011;32233;49.500;7.764;2022-11-11T04:46:51;12.77;;;2.70;;
7432;SDS011;32233;49.500;7.764;2022-11-11T04:49:35;17.30;;;3.00;;
7432;SDS011;32233;49.500;7.764;2022-11-11T04:52:20;16.80;;;2.63;;
7432;SDS011;32233;49.500;7.764;2022-11-11T04:55:12;12.83;;;2.60;;
7432;SDS011;32233;49.500;7.764;2022-11-11T04:58:17;13.03;;;2.50;;
7432;SDS011;32233;49.500;7.764;2022-11-11T05:01:04;5.03;;;1.83;;
7432;SDS011;32233;49.500;7.764;2022-11-11T05:03:49;10.97;;;2.87;;
7432;SDS011;32233;49.500;7.764;2022-11-11T05:06:33;17.60;;;2.73;;
7432;SDS011;32233;49.500;7.764;2022-11-11T05:09:43;6.03;;;2.50;;
7432;SDS011;32233;49.500;7.764;2022-11-11T05:12:28;6.83;;;2.53;;
7432;SDS011;32233;49.500;7.764;2022-11-11T05:15:13;5.00;;;2.43;;
7432;SDS011;32233;49.500;7.764;2022-11-11T05:18:16;15.37;;;2.47;;
7432;SDS011;32233;49.500;7.764;2022-11-11T05:21:22;10.70;;;2.17;;
7432;SDS011;32233;49.500;7.764;2022-11-11T05:24:11;13.27;;;2.50;;
7432;SDS011;32233;49.500;7.764;2022-11-11T05:27:14;17.17;;;2.43;;
7432;SDS011;32233;49.500;7.764;2022-11-11T05:29:59;19.67;;;2.50;;
7432;SDS011;32233;49.500;7.764;2022-11-11T05:32:45;17.40;;;2.67;;
7432;SDS011;32233;49.500;7.764;2022-11-11T05:35:30;5.57;;;2.17;;
7432;SDS011;32233;49.500;7.764;2022-11-11T05:38:15;9.70;;;2.30;;
7432;SDS011;32233;49.500;7.764;2022-11-11T05:41:06;15.20;;;2.20;;
7432;SDS011;32233;49.500;7.764;2022-11-11T05:43:52;9.43;;;2.17;;
7432;SDS011;32233;49.500;7.764;2022-11-11T05:46:36;12.60;;;1.90;;
7432;SDS011;32233;49.500;7.764;2022-11-11T05:49:21;14.83;;;1.97;;
7432;SDS011;32233;49.500;7.764;2022-11-11T05:52:09;9.13;;;2.13;;
7432;SDS011;32233;49.500;7.764;2022-11-11T05:54:56;14.03;;;2.10;;
7432;SDS011;32233;49.500;7.764;2022-11-11T05:57:41;8.83;;;2.23;;
7432;SDS011;32233;49.500;7.764;2022-11-11T06:00:25;19.33;;;2.40;;
7432;SDS011;32233;49.500;7.764;2022-11-11T06:03:11;14.13;;;2.03;;
7432;SDS011;32233;49.500;7.764;2022-11-11T06:05:56;3.37;;;1.70;;
7432;SDS011;32233;49.500;7.764;2022-11-11T06:08:42;9.37;;;2.40;;
7432;SDS011;32233;49.500;7.764;2022-11-11T06:11:27;14.43;;;2.00;;
7432;SDS011;32233;49.500;7.764;2022-11-11T06:14:16;10.60;;;1.70;;
7432;SDS011;32233;49.500;7.764;2022-11-11T06:17:02;10.03;;;1.83;;
7432;SDS011;32233;49.500;7.764;2022-11-11T06:19:47;14.03;;;1.80;;
7432;SDS011;32233;49.500;7.764;2022-11-11T06:22:33;12.80;;;1.70;;
7432;SDS011;32233;49.500;7.764;2022-11-11T06:25:36;9.03;;;2.10;;
7432;SDS011;32233;49.500;7.764;2022-11-11T06:28:50;6.37;;;1.90;;
7432;SDS011;32233;49.500;7.764;2022-11-11T06:31:37;5.53;;;1.73;;
7432;SDS011;32233;49.500;7.764;2022-11-11T06:34:22;18.77;;;1.80;;
7432;SDS011;32233;49.500;7.764;2022-11-11T06:37:07;5.13;;;1.40;;
7432;SDS011;32233;49.500;7.764;2022-11-11T06:39:52;7.70;;;1.60;;
7432;SDS011;32233;49.500;7.764;2022-11-11T06:42:37;7.73;;;1.40;;
7432;SDS011;32233;49.500;7.764;2022-11-11T06:45:23;3.67;;;1.13;;
7432;SDS011;32233;49.500;7.764;2022-11-11T06:48:08;1.30;;;1.20;;
7432;SDS011;32233;49.500;7.764;2022-11-11T06:50:54;2.77;;;1.27;;
7432;SDS011;32233;49.500;7.764;2022-11-11T06:53:44;2.13;;;1.20;;
7432;SDS011;32233;49.500;7.764;2022-11-11T06:56:29;4.00;;;1.10;;
7432;SDS011;32233;49.500;7.764;2022-11-11T06:59:14;6.03;;;1.40;;
7432;SDS011;32233;49.500;7.764;2022-11-11T07:01:59;4.47;;;1.50;;
7432;SDS011;32233;49.500;7.764;2022-11-11T07:04:44;4.97;;;1.63;;
7432;SDS011;32233;49.500;7.764;2022-11-11T07:07:29;2.80;;;1.80;;
7432;SDS011;32233;49.500;7.764;2022-11-11T07:10:14;4.60;;;1.50;;
7432;SDS011;32233;49.500;7.764;2022-11-11T07:13:01;4.57;;;1.40;;
7432;SDS011;32233;49.500;7.764;2022-11-11T07:15:46;4.23;;;1.20;;
7432;SDS011;32233;49.500;7.764;2022-11-11T07:18:31;7.13;;;1.50;;
7432;SDS011;32233;49.500;7.764;2022-11-11T07:21:16;3.53;;;1.53;;
7432;SDS011;32233;49.500;7.764;2022-11-11T07:24:01;3.33;;;1.67;;
7432;SDS011;32233;49.500;7.764;2022-11-11T07:26:45;8.17;;;2.10;;
7432;SDS011;32233;49.500;7.764;2022-11-11T07:29:30;2.30;;;1.37;;
7432;SDS011;32233;49.500;7.764;2022-11-11T07:32:15;2.50;;;1.50;;
7432;SDS011;32233;49.500;7.764;2022-11-11T07:35:00;10.17;;;1.80;;
7432;SDS011;32233;49.500;7.764;2022-11-11T07:37:46;25.93;;;2.53;;
7432;SDS011;32233;49.500;7.764;2022-11-11T07:40:31;4.30;;;1.60;;
7432;SDS011;32233;49.500;7.764;2022-11-11T07:43:16;4.70;;;1.90;;
7432;SDS011;32233;49.500;7.764;2022-11-11T07:46:02;24.03;;;2.47;;
7432;SDS011;32233;49.500;7.764;2022-11-11T07:48:47;9.47;;;1.60;;
7432;SDS011;32233;49.500;7.764;2022-11-11T07:51:32;17.97;;;1.97;;
7432;SDS011;32233;49.500;7.764;2022-11-11T07:54:17;3.53;;;1.40;;
7432;SDS011;32233;49.500;7.764;2022-11-11T07:57:02;9.73;;;1.60;;
7432;SDS011;32233;49.500;7.764;2022-11-11T07:59:47;17.83;;;3.30;;
7432;SDS011;32233;49.500;7.764;2022-11-11T08:02:32;9.80;;;3.50;;
7432;SDS011;32233;49.500;7.764;2022-11-11T08:05:17;4.87;;;2.63;;
7432;SDS011;32233;49.500;7.764;2022-11-11T08:08:03;9.67;;;2.60;;
7432;SDS011;32233;49.500;7.764;2022-11-11T08:10:52;12.47;;;2.00;;
7432;SDS011;32233;49.500;7.764;2022-11-11T08:13:38;8.83;;;1.80;;
7432;SDS011;32233;49.500;7.764;2022-11-11T08:16:24;1.90;;;1.70;;
7432;SDS011;32233;49.500;7.764;2022-11-11T08:19:08;6.80;;;1.73;;
7432;SDS011;32233;49.500;7.764;2022-11-11T08:21:53;18.73;;;2.27;;
7432;SDS011;32233;49.500;7.764;2022-11-11T08:24:38;4.10;;;2.07;;
7432;SDS011;32233;49.500;7.764;2022-11-11T08:27:44;2.30;;;2.10;;
7432;SDS011;32233;49.500;7.764;2022-11-11T08:30:29;11.07;;;2.60;;
7432;SDS011;32233;49.500;7.764;2022-11-11T08:33:15;4.27;;;2.73;;
7432;SDS011;32233;49.500;7.764;2022-11-11T08:36:21;3.60;;;2.20;;
7432;SDS011;32233;49.500;7.764;2022-11-11T08:39:07;10.13;;;2.10;;
7432;SDS011;32233;49.500;7.764;2022-11-11T08:41:52;4.67;;;2.33;;
7432;SDS011;32233;49.500;7.764;2022-11-11T08:44:37;9.00;;;2.93;;
7432;SDS011;32233;49.500;7.764;2022-11-11T08:47:22;4.73;;;2.53;;
7432;SDS011;32233;49.500;7.764;2022-11-11T08:50:08;6.77;;;2.20;;
7432;SDS011;32233;49.500;7.764;2022-11-11T08:52:54;5.97;;;2.30;;
7432;SDS011;32233;49.500;7.764;2022-11-11T08:55:39;2.63;;;1.87;;
7432;SDS011;32233;49.500;7.764;2022-11-11T08:58:24;5.27;;;2.53;;
7432;SDS011;32233;49.500;7.764;2022-11-11T09:01:09;5.77;;;2.70;;
7432;SDS011;32233;49.500;7.764;2022-11-11T09:03:58;18.20;;;3.93;;
7432;SDS011;32233;49.500;7.764;2022-11-11T09:07:00;4.17;;;3.77;;
7432;SDS011;32233;49.500;7.764;2022-11-11T09:09:45;10.73;;;4.70;;
7432;SDS011;32233;49.500;7.764;2022-11-11T09:12:31;23.27;;;5.30;;
7432;SDS011;32233;49.500;7.764;2022-11-11T09:15:15;12.73;;;4.97;;
7432;SDS011;32233;49.500;7.764;2022-11-11T09:18:00;8.63;;;4.30;;
7432;SDS011;32233;49.500;7.764;2022-11-11T09:20:47;7.67;;;3.67;;
7432;SDS011;32233;49.500;7.764;2022-11-11T09:23:32;9.57;;;5.13;;
7432;SDS011;32233;49.500;7.764;2022-11-11T09:26:17;4.63;;;4.20;;
7432;SDS011;32233;49.500;7.764;2022-11-11T09:29:02;8.00;;;3.97;;
7432;SDS011;32233;49.500;7.764;2022-11-11T09:31:47;4.90;;;4.17;;
7432;SDS011;32233;49.500;7.764;2022-11-11T09:34:31;6.10;;;3.93;;
7432;SDS011;32233;49.500;7.764;2022-11-11T09:37:18;4.43;;;3.43;;
7432;SDS011;32233;49.500;7.764;2022-11-11T09:40:03;3.73;;;3.10;;
7432;SDS011;32233;49.500;7.764;2022-11-11T09:42:59;3.23;;;2.80;;
7432;SDS011;32233;49.500;7.764;2022-11-11T09:55:43;4.17;;;3.77;;
7432;SDS011;32233;49.500;7.764;2022-11-11T09:58:35;7.40;;;4.60;;
7432;SDS011;32233;49.500;7.764;2022-11-11T10:01:28;14.00;;;10.67;;
7432;SDS011;32233;49.500;7.764;2022-11-11T10:04:43;32.27;;;22.03;;
7432;SDS011;32233;49.500;7.764;2022-11-11T10:07:40;45.00;;;28.73;;
7432;SDS011;32233;49.500;7.764;2022-11-11T10:10:41;44.77;;;28.87;;
7432;SDS011;32233;49.500;7.764;2022-11-11T10:13:35;64.03;;;32.37;;
7432;SDS011;32233;49.500;7.764;2022-11-11T10:23:12;41.70;;;23.27;;
7432;SDS011;32233;49.500;7.764;2022-11-11T10:26:15;27.17;;;18.20;;
7432;SDS011;32233;49.500;7.764;2022-11-11T10:29:04;31.83;;;14.10;;
7432;SDS011;32233;49.500;7.764;2022-11-11T10:32:19;25.80;;;14.20;;
7432;SDS011;32233;49.500;7.764;2022-11-11T10:35:22;18.17;;;11.43;;
7432;SDS011;32233;49.500;7.764;2022-11-11T10:40:54;13.47;;;9.17;;
7432;SDS011;32233;49.500;7.764;2022-11-11T10:43:43;14.63;;;9.83;;
7432;SDS011;32233;49.500;7.764;2022-11-11T10:46:41;10.83;;;8.47;;
7432;SDS011;32233;49.500;7.764;2022-11-11T10:49:33;9.33;;;7.30;;
7432;SDS011;32233;49.500;7.764;2022-11-11T10:52:28;5.57;;;5.07;;
7432;SDS011;32233;49.500;7.764;2022-11-11T10:55:20;5.87;;;4.90;;
7432;SDS011;32233;49.500;7.764;2022-11-11T10:58:16;5.00;;;4.50;;
7432;SDS011;32233;49.500;7.764;2022-11-11T11:01:37;4.07;;;3.77;;
7432;SDS011;32233;49.500;7.764;2022-11-11T11:04:33;3.43;;;3.20;;
7432;SDS011;32233;49.500;7.764;2022-11-11T11:07:44;3.50;;;3.20;;
7432;SDS011;32233;49.500;7.764;2022-11-11T11:10:51;3.50;;;3.20;;
7432;SDS011;32233;49.500;7.764;2022-11-11T11:13:48;3.40;;;3.10;;
7432;SDS011;32233;49.500;7.764;2022-11-11T11:16:40;2.93;;;2.73;;
7432;SDS011;32233;49.500;7.764;2022-11-11T11:19:31;3.17;;;2.97;;
7432;SDS011;32233;49.500;7.764;2022-11-11T11:22:16;3.70;;;2.77;;
7432;SDS011;32233;49.500;7.764;2022-11-11T11:25:09;3.60;;;3.30;;
7432;SDS011;32233;49.500;7.764;2022-11-11T11:28:09;3.33;;;3.13;;
7432;SDS011;32233;49.500;7.764;2022-11-11T11:31:00;3.70;;;3.10;;
7432;SDS011;32233;49.500;7.764;2022-11-11T11:33:52;2.60;;;2.40;;
7432;SDS011;32233;49.500;7.764;2022-11-11T11:36:38;4.43;;;4.03;;
7432;SDS011;32233;49.500;7.764;2022-11-11T11:39:31;3.70;;;3.40;;
7432;SDS011;32233;49.500;7.764;2022-11-11T11:42:27;8.80;;;7.90;;
7432;SDS011;32233;49.500;7.764;2022-11-11T11:45:14;7.97;;;6.03;;
7432;SDS011;32233;49.500;7.764;2022-11-11T11:57:43;7.07;;;4.80;;
7432;SDS011;32233;49.500;7.764;2022-11-11T12:00:40;4.13;;;3.73;;
7432;SDS011;32233;49.500;7.764;2022-11-11T12:09:47;6.73;;;5.13;;
7432;SDS011;32233;49.500;7.764;2022-11-11T12:34:28;5.00;;;4.50;;
7432;SDS011;32233;49.500;7.764;2022-11-11T12:40:23;5.13;;;4.60;;
7432;SDS011;32233;49.500;7.764;2022-11-11T12:43:46;5.77;;;4.40;;
7432;SDS011;32233;49.500;7.764;2022-11-11T12:49:57;4.83;;;4.37;;
7432;SDS011;32233;49.500;7.764;2022-11-11T12:53:22;5.03;;;4.37;;
7432;SDS011;32233;49.500;7.764;2022-11-11T13:12:14;5.57;;;5.00;;
7432;SDS011;32233;49.500;7.764;2022-11-11T13:15:17;5.27;;;4.70;;
7432;SDS011;32233;49.500;7.764;2022-11-11T13:18:09;6.93;;;6.23;;
7432;SDS011;32233;49.500;7.764;2022-11-11T13:20:59;7.33;;;6.23;;
7432;SDS011;32233;49.500;7.764;2022-11-11T13:23:48;6.93;;;6.23;;
7432;SDS011;32233;49.500;7.764;2022-11-11T13:26:37;7.97;;;6.90;;
7432;SDS011;32233;49.500;7.764;2022-11-11T13:32:25;6.43;;;5.83;;
7432;SDS011;32233;49.500;7.764;2022-11-11T13:38:36;9.90;;;8.60;;
7432;SDS011;32233;49.500;7.764;2022-11-11T13:41:30;7.37;;;6.43;;
7432;SDS011;32233;49.500;7.764;2022-11-11T13:44:23;9.17;;;7.53;;
7432;SDS011;32233;49.500;7.764;2022-11-11T13:47:16;7.77;;;6.97;;
7432;SDS011;32233;49.500;7.764;2022-11-11T13:50:05;8.50;;;7.60;;
7432;SDS011;32233;49.500;7.764;2022-11-11T13:53:03;8.03;;;7.23;;
7432;SDS011;32233;49.500;7.764;2022-11-11T13:55:49;9.27;;;7.63;;
7432;SDS011;32233;49.500;7.764;2022-11-11T13:58:38;11.07;;;8.23;;
7432;SDS011;32233;49.500;7.764;2022-11-11T14:01:35;11.00;;;8.90;;
7432;SDS011;32233;49.500;7.764;2022-11-11T14:04:26;12.30;;;9.40;;
7432;SDS011;32233;49.500;7.764;2022-11-11T14:07:32;10.40;;;9.07;;
7432;SDS011;32233;49.500;7.764;2022-11-11T14:16:07;9.47;;;8.27;;
7432;SDS011;32233;49.500;7.764;2022-11-11T14:18:53;9.87;;;8.40;;
7432;SDS011;32233;49.500;7.764;2022-11-11T14:24:44;9.00;;;7.70;;
7432;SDS011;32233;49.500;7.764;2022-11-11T14:27:30;8.67;;;7.77;;
7432;SDS011;32233;49.500;7.764;2022-11-11T14:30:32;15.20;;;9.73;;
7432;SDS011;32233;49.500;7.764;2022-11-11T14:33:25;11.93;;;8.80;;
7432;SDS011;32233;49.500;7.764;2022-11-11T14:39:29;12.80;;;9.20;;
7432;SDS011;32233;49.500;7.764;2022-11-11T14:51:57;17.13;;;10.63;;
7432;SDS011;32233;49.500;7.764;2022-11-11T14:57:48;24.00;;;12.70;;
7432;SDS011;32233;49.500;7.764;2022-11-11T15:03:36;18.80;;;12.17;;
7432;SDS011;32233;49.500;7.764;2022-11-11T15:06:30;19.13;;;11.50;;
7432;SDS011;32233;49.500;7.764;2022-11-11T15:09:36;17.77;;;10.27;;
7432;SDS011;32233;49.500;7.764;2022-11-11T15:18:46;20.73;;;10.17;;
7432;SDS011;32233;49.500;7.764;2022-11-11T15:21:42;28.80;;;8.63;;
7432;SDS011;32233;49.500;7.764;2022-11-11T15:24:44;23.40;;;9.50;;
7432;SDS011;32233;49.500;7.764;2022-11-11T15:30:49;17.43;;;9.53;;
7432;SDS011;32233;49.500;7.764;2022-11-11T15:39:43;19.30;;;10.73;;
7432;SDS011;32233;49.500;7.764;2022-11-11T15:42:38;22.50;;;11.63;;
7432;SDS011;32233;49.500;7.764;2022-11-11T15:45:33;28.83;;;13.43;;
7432;SDS011;32233;49.500;7.764;2022-11-11T15:48:20;37.43;;;25.70;;
7432;SDS011;32233;49.500;7.764;2022-11-11T15:54:13;35.50;;;12.70;;
7432;SDS011;32233;49.500;7.764;2022-11-11T16:00:02;22.33;;;11.63;;
7432;SDS011;32233;49.500;7.764;2022-11-11T16:03:03;22.03;;;12.30;;
7432;SDS011;32233;49.500;7.764;2022-11-11T16:05:49;28.53;;;12.50;;
7432;SDS011;32233;49.500;7.764;2022-11-11T16:08:34;30.87;;;12.77;;
7432;SDS011;32233;49.500;7.764;2022-11-11T16:11:19;25.17;;;11.83;;
7432;SDS011;32233;49.500;7.764;2022-11-11T16:14:05;17.87;;;10.50;;
7432;SDS011;32233;49.500;7.764;2022-11-11T16:16:52;36.13;;;11.50;;
7432;SDS011;32233;49.500;7.764;2022-11-11T16:19:40;21.90;;;11.17;;
7432;SDS011;32233;49.500;7.764;2022-11-11T16:22:34;23.63;;;10.83;;
7432;SDS011;32233;49.500;7.764;2022-11-11T16:25:20;32.60;;;12.43;;
7432;SDS011;32233;49.500;7.764;2022-11-11T16:28:06;27.50;;;14.43;;
7432;SDS011;32233;49.500;7.764;2022-11-11T16:30:55;37.33;;;13.60;;
7432;SDS011;32233;49.500;7.764;2022-11-11T16:33:40;55.27;;;12.30;;
7432;SDS011;32233;49.500;7.764;2022-11-11T16:36:25;27.03;;;10.27;;
7432;SDS011;32233;49.500;7.764;2022-11-11T16:39:20;46.37;;;11.47;;
7432;SDS011;32233;49.500;7.764;2022-11-11T16:45:17;36.07;;;11.13;;
7432;SDS011;32233;49.500;7.764;2022-11-11T16:48:03;40.97;;;12.30;;
7432;SDS011;32233;49.500;7.764;2022-11-11T16:50:56;40.47;;;12.17;;
7432;SDS011;32233;49.500;7.764;2022-11-11T16:53:47;36.23;;;11.43;;
7432;SDS011;32233;49.500;7.764;2022-11-11T16:56:46;25.87;;;13.17;;
7432;SDS011;32233;49.500;7.764;2022-11-11T16:59:47;30.63;;;15.40;;
7432;SDS011;32233;49.500;7.764;2022-11-11T17:02:38;23.70;;;15.27;;
7432;SDS011;32233;49.500;7.764;2022-11-11T17:05:45;26.93;;;12.67;;
7432;SDS011;32233;49.500;7.764;2022-11-11T17:08:37;24.00;;;11.83;;
7432;SDS011;32233;49.500;7.764;2022-11-11T17:14:24;26.03;;;11.03;;
7432;SDS011;32233;49.500;7.764;2022-11-11T17:17:11;27.77;;;12.07;;
7432;SDS011;32233;49.500;7.764;2022-11-11T17:19:56;24.20;;;13.43;;
7432;SDS011;32233;49.500;7.764;2022-11-11T17:22:48;22.67;;;12.43;;
7432;SDS011;32233;49.500;7.764;2022-11-11T17:25:34;23.67;;;15.30;;
7432;SDS011;32233;49.500;7.764;2022-11-11T17:28:19;31.17;;;17.97;;
7432;SDS011;32233;49.500;7.764;2022-11-11T17:31:05;23.80;;;15.10;;
7432;SDS011;32233;49.500;7.764;2022-11-11T17:33:52;15.13;;;11.50;;
7432;SDS011;32233;49.500;7.764;2022-11-11T17:36:36;17.87;;;11.33;;
7432;SDS011;32233;49.500;7.764;2022-11-11T17:39:21;14.17;;;11.37;;
7432;SDS011;32233;49.500;7.764;2022-11-11T17:42:07;16.00;;;11.40;;
7432;SDS011;32233;49.500;7.764;2022-11-11T17:44:52;16.10;;;11.73;;
7432;SDS011;32233;49.500;7.764;2022-11-11T17:47:37;20.77;;;14.97;;
7432;SDS011;32233;49.500;7.764;2022-11-11T17:50:27;24.73;;;14.80;;
7432;SDS011;32233;49.500;7.764;2022-11-11T17:53:12;23.90;;;14.40;;
7432;SDS011;32233;49.500;7.764;2022-11-11T17:56:00;20.70;;;13.33;;
7432;SDS011;32233;49.500;7.764;2022-11-11T17:58:46;27.97;;;13.43;;
7432;SDS011;32233;49.500;7.764;2022-11-11T18:01:31;25.33;;;12.53;;
7432;SDS011;32233;49.500;7.764;2022-11-11T18:04:16;18.70;;;13.13;;
7432;SDS011;32233;49.500;7.764;2022-11-11T18:07:01;24.57;;;15.37;;
7432;SDS011;32233;49.500;7.764;2022-11-11T18:09:46;27.87;;;19.20;;
7432;SDS011;32233;49.500;7.764;2022-11-11T18:12:32;25.57;;;18.00;;
7432;SDS011;32233;49.500;7.764;2022-11-11T18:15:16;20.90;;;16.03;;
7432;SDS011;32233;49.500;7.764;2022-11-11T18:18:01;19.43;;;14.70;;
7432;SDS011;32233;49.500;7.764;2022-11-11T18:20:46;20.10;;;13.63;;
7432;SDS011;32233;49.500;7.764;2022-11-11T18:23:32;16.70;;;13.10;;
7432;SDS011;32233;49.500;7.764;2022-11-11T18:26:19;31.53;;;18.97;;
7432;SDS011;32233;49.500;7.764;2022-11-11T18:29:08;34.10;;;21.37;;
7432;SDS011;32233;49.500;7.764;2022-11-11T18:31:54;46.13;;;19.80;;
7432;SDS011;32233;49.500;7.764;2022-11-11T18:34:40;60.50;;;12.73;;
7432;SDS011;32233;49.500;7.764;2022-11-11T18:37:25;45.43;;;9.33;;
7432;SDS011;32233;49.500;7.764;2022-11-11T18:40:10;61.27;;;10.83;;
7432;SDS011;32233;49.500;7.764;2022-11-11T18:42:56;22.57;;;8.80;;
7432;SDS011;32233;49.500;7.764;2022-11-11T18:45:41;23.57;;;8.50;;
7432;SDS011;32233;49.500;7.764;2022-11-11T18:48:26;24.07;;;9.10;;
7432;SDS011;32233;49.500;7.764;2022-11-11T18:51:12;37.87;;;11.13;;
7432;SDS011;32233;49.500;7.764;2022-11-11T18:54:00;43.30;;;10.37;;
7432;SDS011;32233;49.500;7.764;2022-11-11T18:56:45;52.70;;;10.60;;
7432;SDS011;32233;49.500;7.764;2022-11-11T18:59:30;41.93;;;15.87;;
7432;SDS011;32233;49.500;7.764;2022-11-11T19:02:15;56.27;;;19.10;;
7432;SDS011;32233;49.500;7.764;2022-11-11T19:05:01;22.67;;;11.53;;
7432;SDS011;32233;49.500;7.764;2022-11-11T19:07:46;53.03;;;12.87;;
7432;SDS011;32233;49.500;7.764;2022-11-11T19:10:31;43.57;;;12.50;;
7432;SDS011;32233;49.500;7.764;2022-11-11T19:13:16;42.37;;;13.03;;
7432;SDS011;32233;49.500;7.764;2022-11-11T19:16:11;44.17;;;19.23;;
7432;SDS011;32233;49.500;7.764;2022-11-11T19:18:58;39.43;;;17.20;;
7432;SDS011;32233;49.500;7.764;2022-11-11T19:21:44;54.10;;;13.10;;
7432;SDS011;32233;49.500;7.764;2022-11-11T19:24:29;37.13;;;12.77;;
7432;SDS011;32233;49.500;7.764;2022-11-11T19:27:18;44.77;;;12.70;;
7432;SDS011;32233;49.500;7.764;2022-11-11T19:30:03;30.13;;;12.10;;